Time;durP1;ratioP1;P1;durP2;ratioP2;P2;SDS_P1;SDS_P2;PMS_P1;PMS_P2;Temp;Humidity;BMP_temperature;BMP_pressure;BME280_temperature;BME280_humidity;BME280_pressure;Samples;Min_cycle;Max_cycle;Signal;HPM_P1;HPM_P2
2021/12/15 00:00:20;;;;;;;26.77;7.67;;;;;;;-5.00;100.00;98405.38;5029501;28;20479;-71
2021/12/15 00:02:51;;;;;;;21.97;7.20;;;;;;;-5.06;100.00;98416.47;5029628;28;20049;-71
2021/12/15 00:05:22;;;;;;;25.23;8.17;;;;;;;-5.00;100.00;98415.63;5029508;28;20053;-71
2021/12/15 00:07:51;;;;;;;26.10;8.27;;;;;;;-5.03;100.00;98413.94;5028483;28;20065;-72
2021/12/15 00:10:18;;;;;;;33.83;9.23;;;;;;;-4.97;100.00;98424.22;5028785;28;20490;-71
2021/12/15 00:12:46;;;;;;;29.33;8.87;;;;;;;-5.03;100.00;98421.63;5029219;28;20073;-71
2021/12/15 00:15:17;;;;;;;32.30;9.47;;;;;;;-5.02;100.00;98427.63;5029499;28;20379;-71
2021/12/15 00:17:46;;;;;;;37.27;11.43;;;;;;;-4.82;100.00;98423.41;5027981;28;20065;-72
2021/12/15 00:20:15;;;;;;;43.70;10.37;;;;;;;-4.84;100.00;98425.09;5028830;28;20299;-72
2021/12/15 00:22:43;;;;;;;31.13;10.97;;;;;;;-4.65;100.00;98424.31;5027714;28;20626;-72
2021/12/15 00:25:13;;;;;;;30.33;10.90;;;;;;;-4.77;100.00;98422.56;5026824;28;20072;-72
2021/12/15 00:27:43;;;;;;;37.37;10.40;;;;;;;-4.79;100.00;98426.81;5024784;28;20103;-71
2021/12/15 00:30:12;;;;;;;36.57;11.27;;;;;;;-4.69;100.00;98427.72;5027500;28;20065;-69
2021/12/15 00:32:40;;;;;;;30.00;10.70;;;;;;;-4.63;100.00;98425.16;5031925;28;20033;-68
2021/12/15 00:35:10;;;;;;;39.77;11.13;;;;;;;-4.64;100.00;98423.47;5034113;28;20418;-68
2021/12/15 00:37:49;;;;;;;48.85;11.25;;;;;;;-4.84;100.00;98420.84;5028520;28;20450;-71
2021/12/15 00:40:19;;;;;;;42.57;9.47;;;;;;;-4.82;100.00;98419.16;5033908;28;20051;-70
2021/12/15 00:42:46;;;;;;;33.53;8.43;;;;;;;-4.83;100.00;98419.97;5034658;28;20045;-70
2021/12/15 00:45:16;;;;;;;30.57;9.27;;;;;;;-4.84;100.00;98417.41;5033279;28;21490;-70
2021/12/15 00:47:44;;;;;;;31.30;8.90;;;;;;;-4.79;100.00;98408.03;5028315;28;20214;-70
2021/12/15 00:50:22;;;;;;;30.73;9.17;;;;;;;-4.82;100.00;98408.03;5032428;28;20045;-70
2021/12/15 00:52:49;;;;;;;36.33;9.23;;;;;;;-142.06;100.00;58987.19;5031499;28;20482;-70
2021/12/15 00:55:20;;;;;;;23.50;8.30;;;;;;;-142.06;100.00;58987.19;5033165;28;20042;-70
2021/12/15 00:57:47;;;;;;;27.23;8.97;;;;;;;-142.06;100.00;58987.19;5032031;28;20068;-70
2021/12/15 01:00:20;;;;;;;70.17;14.40;;;;;;;-142.06;100.00;58987.19;5032970;28;20041;-70
2021/12/15 01:02:47;;;;;;;32.58;7.65;;;;;;;-142.06;100.00;58987.19;5033240;28;20497;-70
2021/12/15 01:05:18;;;;;;;29.40;8.40;;;;;;;-142.06;100.00;58987.19;5032846;28;20494;-70
2021/12/15 01:07:47;;;;;;;24.73;8.70;;;;;;;-142.06;100.00;58987.19;5032136;28;20120;-70
2021/12/15 01:10:18;;;;;;;33.37;9.00;;;;;;;-142.06;100.00;58987.19;5031965;28;20115;-69
2021/12/15 01:14:27;;;;;;;29.80;8.23;;;;;;;-142.06;100.00;58987.19;5015651;28;20136;-69
2021/12/15 01:21:13;;;;;;;27.17;8.87;;;;;;;-142.06;100.00;58987.19;5032443;28;20041;-69
2021/12/15 01:23:41;;;;;;;20.63;7.90;;;;;;;-142.06;100.00;58987.19;5032400;28;20048;-69
2021/12/15 01:26:10;;;;;;;38.73;8.27;;;;;;;-142.06;100.00;58987.19;5032730;28;20115;-69
2021/12/15 01:28:38;;;;;;;22.90;8.93;;;;;;;-142.06;100.00;58987.19;5063957;28;20053;-70
2021/12/15 01:31:08;;;;;;;41.23;10.70;;;;;;;-142.06;100.00;58987.19;5031712;28;20437;-69
2021/12/15 01:33:38;;;;;;;39.77;10.83;;;;;;;-142.06;100.00;58987.19;5031613;28;20111;-69
2021/12/15 01:36:06;;;;;;;39.97;9.13;;;;;;;-142.06;100.00;58987.19;5031960;28;20037;-69
2021/12/15 01:38:38;;;;;;;32.90;10.67;;;;;;;-142.06;100.00;58987.19;5036689;28;20042;-69
2021/12/15 01:41:07;;;;;;;43.30;9.03;;;;;;;-142.06;100.00;58987.19;5035193;28;20099;-69
2021/12/15 01:43:50;;;;;;;39.23;10.23;;;;;;;-142.06;100.00;58987.19;5036331;28;20128;-69
2021/12/15 01:49:07;;;;;;;34.10;12.67;;;;;;;-142.06;100.00;58987.19;5036110;28;20486;-69
2021/12/15 01:51:34;;;;;;;56.57;12.97;;;;;;;-142.06;100.00;58987.19;5035277;28;20049;-69
2021/12/15 01:54:03;;;;;;;45.50;11.57;;;;;;;-142.06;100.00;58987.19;5035754;28;20049;-69
2021/12/15 01:56:31;;;;;;;34.47;13.17;;;;;;;-142.06;100.00;58987.19;5032119;28;20458;-69
2021/12/15 01:58:58;;;;;;;51.37;11.70;;;;;;;-142.06;100.00;58987.19;5032084;28;20493;-69
2021/12/15 02:01:26;;;;;;;62.43;14.77;;;;;;;-142.06;100.00;58987.19;5029581;28;20069;-68
2021/12/15 02:03:53;;;;;;;42.73;12.90;;;;;;;-142.06;100.00;58987.19;5031132;28;20474;-69
2021/12/15 02:06:20;;;;;;;43.40;12.47;;;;;;;-142.06;100.00;58987.19;5030057;28;20108;-68
2021/12/15 02:08:48;;;;;;;53.23;12.57;;;;;;;-142.06;100.00;58987.19;5031273;28;20036;-68
2021/12/15 02:11:17;;;;;;;49.40;14.20;;;;;;;-142.06;100.00;58987.19;5030786;28;20041;-68
2021/12/15 02:13:44;;;;;;;52.93;13.10;;;;;;;-142.06;100.00;58987.19;5034623;28;20052;-68
2021/12/15 02:16:12;;;;;;;48.53;14.10;;;;;;;-142.06;100.00;58987.19;5035846;28;20053;-69
2021/12/15 02:18:43;;;;;;;36.23;11.73;;;;;;;-142.06;100.00;58987.19;5034973;28;20044;-69
2021/12/15 02:21:15;;;;;;;38.10;12.77;;;;;;;-142.06;100.00;58987.19;5035920;28;20046;-69
2021/12/15 02:23:48;;;;;;;35.30;14.07;;;;;;;-142.06;100.00;58987.19;5034946;28;20044;-69
2021/12/15 02:26:24;;;;;;;36.50;12.02;;;;;;;-142.06;100.00;58987.19;5034904;28;20132;-69
2021/12/15 02:28:55;;;;;;;52.07;15.70;;;;;;;-142.06;100.00;58987.19;5034754;28;20103;-69
2021/12/15 02:31:37;;;;;;;48.53;13.67;;;;;;;-142.06;100.00;58987.19;5034456;28;20037;-69
2021/12/15 02:34:20;;;;;;;65.30;13.33;;;;;;;-142.06;100.00;58987.19;5034485;28;20446;-69
2021/12/15 02:37:16;;;;;;;60.40;13.83;;;;;;;-142.06;100.00;58987.19;5034446;28;20560;-69
2021/12/15 02:39:46;;;;;;;55.17;12.80;;;;;;;-142.06;100.00;58987.19;5034694;28;20508;-70
2021/12/15 02:42:13;;;;;;;42.33;13.63;;;;;;;-142.06;100.00;58987.19;5032676;28;20037;-70
2021/12/15 02:44:43;;;;;;;56.30;14.00;;;;;;;-142.06;100.00;58987.19;5034807;28;20037;-70
2021/12/15 02:47:12;;;;;;;67.97;14.23;;;;;;;-142.06;100.00;58987.19;5034135;28;20296;-69
2021/12/15 02:49:39;;;;;;;44.37;11.27;;;;;;;-142.06;100.00;58987.19;5034477;28;20867;-69
2021/12/15 02:52:09;;;;;;;89.13;13.57;;;;;;;-142.06;100.00;58987.19;5034809;28;20172;-69
2021/12/15 02:54:36;;;;;;;75.53;15.60;;;;;;;-142.06;100.00;58987.19;5034241;28;20041;-69
2021/12/15 02:57:09;;;;;;;53.47;15.63;;;;;;;-142.06;100.00;58987.19;5033565;28;20053;-69
2021/12/15 02:59:47;;;;;;;65.25;14.60;;;;;;;-142.06;100.00;58987.19;5032949;28;20037;-69
2021/12/15 03:02:33;;;;;;;56.77;13.50;;;;;;;-142.06;100.00;58987.19;5031939;28;20128;-69
2021/12/15 03:05:07;;;;;;;84.33;15.53;;;;;;;-142.06;100.00;58987.19;5031982;28;20128;-68
2021/12/15 03:07:43;;;;;;;49.10;15.07;;;;;;;-142.06;100.00;58987.19;5049587;28;20292;-69
2021/12/15 03:15:41;;;;;;;127.77;16.90;;;;;;;-142.06;100.00;58987.19;5031072;28;20296;-68
2021/12/15 03:18:12;;;;;;;67.07;14.30;;;;;;;-142.06;100.00;58987.19;5034249;28;20315;-69
2021/12/15 03:20:46;;;;;;;65.60;13.93;;;;;;;-142.06;100.00;58987.19;5027643;28;20083;-69
2021/12/15 03:23:19;;;;;;;56.63;13.73;;;;;;;-142.06;100.00;58987.19;5032552;28;20292;-69
2021/12/15 03:25:47;;;;;;;47.50;13.70;;;;;;;-142.06;100.00;58987.19;5033900;28;20288;-69
2021/12/15 03:36:38;;;;;;;66.43;14.77;;;;;;;-142.06;100.00;58987.19;5031904;28;20303;-69
2021/12/15 03:39:11;;;;;;;106.43;16.07;;;;;;;-142.06;100.00;58987.19;5032724;28;20443;-69
2021/12/15 03:41:38;;;;;;;88.30;17.75;;;;;;;-142.06;100.00;58987.19;5033024;28;20311;-69
2021/12/15 03:44:07;;;;;;;60.40;15.47;;;;;;;-142.06;100.00;58987.19;5033539;28;20049;-69
2021/12/15 03:46:35;;;;;;;61.70;15.07;;;;;;;-142.06;100.00;58987.19;5032594;28;20295;-69
2021/12/15 03:49:02;;;;;;;86.30;18.90;;;;;;;-142.06;100.00;58987.19;5033671;28;20046;-68
2021/12/15 03:51:29;;;;;;;86.83;18.70;;;;;;;-142.06;100.00;58987.19;5032302;28;20053;-68
2021/12/15 03:53:56;;;;;;;79.33;15.60;;;;;;;-142.06;100.00;58987.19;5033937;28;20128;-68
2021/12/15 03:56:24;;;;;;;49.97;13.80;;;;;;;-142.06;100.00;58987.19;5033737;28;20642;-68
2021/12/15 03:58:51;;;;;;;57.17;14.83;;;;;;;-142.06;100.00;58987.19;5033475;28;20291;-68
2021/12/15 04:01:22;;;;;;;47.10;13.67;;;;;;;-142.06;100.00;58987.19;5033666;28;20280;-69
2021/12/15 04:03:52;;;;;;;88.73;13.70;;;;;;;-142.06;100.00;58987.19;5033078;28;20429;-68
2021/12/15 04:06:25;;;;;;;59.70;13.43;;;;;;;-142.06;100.00;58987.19;5033160;28;20578;-69
2021/12/15 04:08:53;;;;;;;58.47;12.52;;;;;;;-142.06;100.00;58987.19;5033650;28;20500;-69
2021/12/15 04:11:22;;;;;;;40.93;12.07;;;;;;;-142.06;100.00;58987.19;5032517;28;20038;-69
2021/12/15 04:13:52;;;;;;;34.30;11.90;;;;;;;-142.06;100.00;58987.19;5032759;28;20033;-68
2021/12/15 04:16:41;;;;;;;87.57;15.20;;;;;;;-142.06;100.00;58987.19;5033155;28;20120;-68
2021/12/15 04:19:11;;;;;;;31.80;10.53;;;;;;;-142.06;100.00;58987.19;5029741;28;20065;-68
2021/12/15 04:21:39;;;;;;;48.40;10.80;;;;;;;-142.06;100.00;58987.19;5029542;28;20041;-69
2021/12/15 04:24:07;;;;;;;34.53;11.83;;;;;;;-142.06;100.00;58987.19;5030543;28;20124;-68
2021/12/15 04:26:36;;;;;;;35.53;10.03;;;;;;;-142.06;100.00;58987.19;5030188;28;20057;-68
2021/12/15 04:29:07;;;;;;;36.57;10.67;;;;;;;-142.06;100.00;58987.19;5032736;28;20038;-64
2021/12/15 04:31:40;;;;;;;39.83;15.90;;;;;;;-142.06;100.00;58987.19;5029489;28;20069;-65
2021/12/15 04:34:10;;;;;;;35.88;10.10;;;;;;;-142.06;100.00;58987.19;5031508;28;20508;-65
2021/12/15 04:36:41;;;;;;;25.43;10.07;;;;;;;-142.06;100.00;58987.19;5030436;28;20069;-64
2021/12/15 04:39:11;;;;;;;29.73;9.80;;;;;;;-142.06;100.00;58987.19;5030406;28;20323;-64
2021/12/15 04:41:40;;;;;;;31.10;10.43;;;;;;;-142.06;100.00;58987.19;5031619;28;20296;-64
2021/12/15 04:44:10;;;;;;;29.57;10.37;;;;;;;-142.06;100.00;58987.19;5031001;28;20049;-64
2021/12/15 04:46:40;;;;;;;27.97;9.17;;;;;;;-142.06;100.00;58987.19;5030007;28;20072;-64
2021/12/15 04:49:09;;;;;;;31.77;9.73;;;;;;;-142.06;100.00;58987.19;5029576;28;20041;-65
2021/12/15 04:51:37;;;;;;;29.43;10.80;;;;;;;-142.06;100.00;58987.19;5031219;28;20069;-64
2021/12/15 04:54:06;;;;;;;27.33;9.00;;;;;;;-142.06;100.00;58987.19;5031100;28;20041;-64
2021/12/15 04:56:33;;;;;;;29.67;10.57;;;;;;;-142.06;100.00;58987.19;5031279;28;20049;-63
2021/12/15 04:59:01;;;;;;;26.87;10.83;;;;;;;-142.06;100.00;58987.19;5013338;28;20046;-64
2021/12/15 05:01:29;;;;;;;25.50;10.13;;;;;;;-142.06;100.00;58987.19;5031392;28;20065;-65
2021/12/15 05:03:56;;;;;;;28.63;11.30;;;;;;;-142.06;100.00;58987.19;5029865;28;20042;-64
2021/12/15 05:06:24;;;;;;;31.10;11.80;;;;;;;-142.06;100.00;58987.19;5031137;28;20046;-64
2021/12/15 05:08:51;;;;;;;25.63;10.70;;;;;;;-142.06;100.00;58987.19;5031415;28;20037;-64
2021/12/15 05:11:18;;;;;;;24.17;10.03;;;;;;;-142.06;100.00;58987.19;5030663;28;20183;-63
2021/12/15 05:13:45;;;;;;;30.07;12.37;;;;;;;-142.06;100.00;58987.19;5031300;28;20134;-64
2021/12/15 05:16:12;;;;;;;29.47;11.93;;;;;;;-142.06;100.00;58987.19;5031206;28;20042;-64
2021/12/15 05:18:41;;;;;;;27.27;11.17;;;;;;;-142.06;100.00;58987.19;5027242;28;20544;-64
2021/12/15 05:21:09;;;;;;;27.53;9.33;;;;;;;-142.06;100.00;58987.19;5031262;28;20120;-63
2021/12/15 05:23:36;;;;;;;26.37;10.77;;;;;;;-142.06;100.00;58987.19;5031218;28;20111;-63
2021/12/15 05:26:04;;;;;;;32.70;13.17;;;;;;;-142.06;100.00;58987.19;5030084;28;20046;-63
2021/12/15 05:28:31;;;;;;;36.67;12.77;;;;;;;-142.06;100.00;58987.19;5031275;28;20117;-66
2021/12/15 05:30:59;;;;;;;37.40;16.00;;;;;;;-142.06;100.00;58987.19;5030269;28;20045;-66
2021/12/15 05:33:26;;;;;;;34.87;13.80;;;;;;;-142.06;100.00;58987.19;5030858;28;20121;-65
2021/12/15 05:35:56;;;;;;;38.27;15.07;;;;;;;-142.06;100.00;58987.19;5031353;28;20037;-65
2021/12/15 05:38:24;;;;;;;43.27;15.30;;;;;;;-142.06;100.00;58987.19;5031043;28;20038;-66
2021/12/15 05:40:51;;;;;;;51.77;18.77;;;;;;;-142.06;100.00;58987.19;5030192;28;20052;-65
2021/12/15 05:43:19;;;;;;;49.00;16.33;;;;;;;-142.06;100.00;58987.19;5031201;28;20445;-65
2021/12/15 05:45:48;;;;;;;45.27;17.33;;;;;;;-142.06;100.00;58987.19;5030808;28;20045;-65
2021/12/15 05:48:15;;;;;;;52.83;16.80;;;;;;;-142.06;100.00;58987.19;5031200;28;20041;-65
2021/12/15 05:50:45;;;;;;;43.80;16.67;;;;;;;-142.06;100.00;58987.19;5030826;28;20042;-75
2021/12/15 05:53:13;;;;;;;54.37;18.67;;;;;;;-142.06;100.00;58987.19;5031956;28;20073;-65
2021/12/15 05:55:41;;;;;;;56.97;17.63;;;;;;;-142.06;100.00;58987.19;5031728;28;20052;-64
2021/12/15 05:58:09;;;;;;;61.77;19.23;;;;;;;-142.06;100.00;58987.19;5031402;28;20080;-65
2021/12/15 06:00:40;;;;;;;50.67;18.40;;;;;;;-142.06;100.00;58987.19;5030730;28;20128;-65
2021/12/15 06:03:08;;;;;;;56.67;18.20;;;;;;;-142.06;100.00;58987.19;5030884;28;20116;-64
2021/12/15 06:05:36;;;;;;;42.23;16.50;;;;;;;-142.06;100.00;58987.19;5030809;28;20159;-65
2021/12/15 06:08:04;;;;;;;55.30;17.67;;;;;;;-142.06;100.00;58987.19;5030842;28;20144;-65
2021/12/15 06:10:35;;;;;;;53.53;17.73;;;;;;;-142.06;100.00;58987.19;5030995;28;20033;-65
2021/12/15 06:13:04;;;;;;;45.93;17.13;;;;;;;-142.06;100.00;58987.19;5030970;28;20120;-65
2021/12/15 06:15:32;;;;;;;48.77;17.90;;;;;;;-142.06;100.00;58987.19;5027449;28;20050;-64
2021/12/15 06:18:04;;;;;;;50.17;15.57;;;;;;;-142.06;100.00;58987.19;5030753;28;20057;-64
2021/12/15 06:20:32;;;;;;;49.90;17.63;;;;;;;-142.06;100.00;58987.19;5028281;28;20124;-65
2021/12/15 06:23:01;;;;;;;46.93;17.07;;;;;;;-142.06;100.00;58987.19;5032662;28;20038;-65
2021/12/15 06:25:29;;;;;;;50.00;16.80;;;;;;;-142.06;100.00;58987.19;5034677;28;20057;-65
2021/12/15 06:27:57;;;;;;;58.47;18.97;;;;;;;-142.06;100.00;58987.19;5032939;28;20137;-65
2021/12/15 06:30:24;;;;;;;42.00;16.77;;;;;;;-142.06;100.00;58987.19;5034479;28;20128;-65
2021/12/15 06:32:51;;;;;;;44.87;19.03;;;;;;;-142.06;100.00;58987.19;5034111;28;21337;-64
2021/12/15 06:35:18;;;;;;;55.97;17.47;;;;;;;-142.06;100.00;58987.19;5034724;28;20061;-64
2021/12/15 06:37:45;;;;;;;50.77;16.67;;;;;;;-142.06;100.00;58987.19;5034431;28;20132;-64
2021/12/15 06:40:13;;;;;;;44.83;14.90;;;;;;;-142.06;100.00;58987.19;5034388;28;20111;-65
2021/12/15 06:42:42;;;;;;;49.50;18.80;;;;;;;-142.06;100.00;58987.19;5034581;28;20065;-63
2021/12/15 06:45:15;;;;;;;52.43;16.97;;;;;;;-142.06;100.00;58987.19;5034324;28;20091;-64
2021/12/15 06:58:40;;;;;;;56.60;19.43;;;;;;;-142.06;100.00;58987.19;5033658;28;20067;-64
2021/12/15 07:01:09;;;;;;;54.10;20.27;;;;;;;-142.06;100.00;58987.19;5033009;28;20077;-64
2021/12/15 07:03:36;;;;;;;51.33;18.00;;;;;;;-142.06;100.00;58987.19;5033332;28;20072;-63
2021/12/15 07:06:03;;;;;;;55.00;20.13;;;;;;;-142.06;100.00;58987.19;5033345;28;20486;-64
2021/12/15 07:08:30;;;;;;;57.60;21.57;;;;;;;-142.06;100.00;58987.19;5032851;28;20128;-64
2021/12/15 07:10:59;;;;;;;55.67;19.53;;;;;;;-142.06;100.00;58987.19;5033017;28;20045;-64
2021/12/15 07:13:27;;;;;;;52.17;19.67;;;;;;;-142.06;100.00;58987.19;5033086;28;20041;-64
2021/12/15 07:15:59;;;;;;;51.33;22.07;;;;;;;-142.06;100.00;58987.19;5031599;28;20049;-66
2021/12/15 07:18:39;;;;;;;48.33;18.80;;;;;;;-142.06;100.00;58987.19;5032744;28;20136;-64
2021/12/15 07:21:15;;;;;;;50.73;18.17;;;;;;;-142.06;100.00;58987.19;5032471;28;20053;-64
2021/12/15 07:23:42;;;;;;;;;;;;;;;-142.06;100.00;58987.19;5031973;28;20486;-64
2021/12/15 07:26:09;;;;;;;40.40;18.10;;;;;;;-142.06;100.00;58987.19;5032890;28;19921;-65
2021/12/15 07:28:36;;;;;;;48.60;16.60;;;;;;;-142.06;100.00;58987.19;5033192;28;20076;-64
2021/12/15 07:31:04;;;;;;;48.17;15.70;;;;;;;-142.06;100.00;58987.19;5033150;28;20501;-65
2021/12/15 07:33:32;;;;;;;43.00;18.47;;;;;;;-142.06;100.00;58987.19;5032845;28;20045;-64
2021/12/15 07:36:00;;;;;;;57.17;21.03;;;;;;;-142.06;100.00;58987.19;5032575;28;20065;-65
2021/12/15 07:38:27;;;;;;;43.70;18.33;;;;;;;-142.06;100.00;58987.19;5032935;28;20486;-64
2021/12/15 07:40:54;;;;;;;42.40;17.10;;;;;;;-142.06;100.00;58987.19;5033317;28;20046;-64
2021/12/15 07:43:25;;;;;;;39.87;18.13;;;;;;;-142.06;100.00;58987.19;5033367;28;20383;-64
2021/12/15 07:45:56;;;;;;;40.97;18.23;;;;;;;-142.06;100.00;58987.19;5033258;28;20116;-65
2021/12/15 07:48:26;;;;;;;39.10;18.00;;;;;;;-142.06;100.00;58987.19;5032922;28;20497;-65
2021/12/15 07:50:59;;;;;;;48.47;17.90;;;;;;;-142.06;100.00;58987.19;5031909;28;20041;-66
2021/12/15 07:53:26;;;;;;;38.38;15.80;;;;;;;-142.06;100.00;58987.19;5033092;28;20040;-67
2021/12/15 07:55:55;;;;;;;40.03;17.87;;;;;;;-142.06;100.00;58987.19;5032963;28;20050;-65
2021/12/15 07:58:24;;;;;;;39.53;16.90;;;;;;;-142.06;100.00;58987.19;5030663;28;20038;-65
2021/12/15 08:00:53;;;;;;;43.90;17.13;;;;;;;-142.06;100.00;58987.19;5033356;28;20478;-64
2021/12/15 08:03:21;;;;;;;43.17;18.77;;;;;;;-142.06;100.00;58987.19;5031570;28;20076;-65
2021/12/15 08:05:50;;;;;;;43.63;17.67;;;;;;;-142.06;100.00;58987.19;5032556;28;20672;-65
2021/12/15 08:08:18;;;;;;;38.70;18.80;;;;;;;-142.06;100.00;58987.19;5031207;28;20580;-65
2021/12/15 08:10:46;;;;;;;46.63;17.33;;;;;;;-142.06;100.00;58987.19;5032647;28;20128;-66
2021/12/15 08:13:15;;;;;;;39.30;15.67;;;;;;;-142.06;100.00;58987.19;5032558;28;20037;-64
2021/12/15 08:15:42;;;;;;;42.07;17.17;;;;;;;-142.06;100.00;58987.19;5032222;28;20085;-65
2021/12/15 08:18:10;;;;;;;40.53;17.30;;;;;;;-142.06;100.00;58987.19;5032131;28;20044;-65
2021/12/15 08:20:38;;;;;;;44.53;19.10;;;;;;;-142.06;100.00;58987.19;5032119;28;20121;-65
2021/12/15 08:23:06;;;;;;;40.80;16.73;;;;;;;-142.06;100.00;58987.19;5032183;28;20051;-66
2021/12/15 08:25:37;;;;;;;42.10;16.37;;;;;;;-142.06;100.00;58987.19;5032551;28;20046;-66
2021/12/15 08:28:05;;;;;;;43.40;17.20;;;;;;;-142.06;100.00;58987.19;5029896;28;20053;-66
2021/12/15 08:30:33;;;;;;;37.50;15.67;;;;;;;-142.06;100.00;58987.19;5030003;28;20044;-65
2021/12/15 08:33:05;;;;;;;42.03;19.53;;;;;;;-142.06;100.00;58987.19;5032154;28;20429;-65
2021/12/15 08:35:35;;;;;;;36.43;17.93;;;;;;;-142.06;100.00;58987.19;5031509;28;20053;-65
2021/12/15 08:38:03;;;;;;;40.03;15.37;;;;;;;-142.06;100.00;58987.19;5031861;28;20033;-64
2021/12/15 08:40:30;;;;;;;44.30;17.90;;;;;;;-142.06;100.00;58987.19;5031641;28;20042;-64
2021/12/15 08:42:59;;;;;;;44.00;18.40;;;;;;;-142.06;100.00;58987.19;5031582;28;20033;-65
2021/12/15 08:45:28;;;;;;;39.80;16.67;;;;;;;-142.06;100.00;58987.19;5031353;28;20046;-65
2021/12/15 08:47:57;;;;;;;42.10;17.77;;;;;;;-142.06;100.00;58987.19;5031765;28;20084;-64
2021/12/15 08:50:29;;;;;;;44.37;18.73;;;;;;;-142.06;100.00;58987.19;5031374;28;20053;-65
2021/12/15 08:52:57;;;;;;;48.90;20.90;;;;;;;-142.06;100.00;58987.19;5032138;28;20043;-64
2021/12/15 08:55:25;;;;;;;42.70;19.17;;;;;;;-142.06;100.00;58987.19;5032000;28;20041;-65
2021/12/15 08:57:55;;;;;;;47.10;18.37;;;;;;;-142.06;100.00;58987.19;5031473;28;20044;-65
2021/12/15 09:00:25;;;;;;;42.70;19.30;;;;;;;-142.06;100.00;58987.19;5031059;28;20041;-70
2021/12/15 09:02:54;;;;;;;46.30;18.07;;;;;;;-142.06;100.00;58987.19;5029931;28;20045;-71
2021/12/15 09:05:22;;;;;;;42.67;18.97;;;;;;;-142.06;100.00;58987.19;5030604;28;20056;-71
2021/12/15 09:07:51;;;;;;;45.27;17.63;;;;;;;-142.06;100.00;58987.19;5030582;28;20038;-71
2021/12/15 09:10:19;;;;;;;39.87;18.77;;;;;;;-142.06;100.00;58987.19;5029725;28;20390;-72
2021/12/15 09:15:11;;;;;;;59.70;19.87;;;;;;;-1.42;100.00;98496.25;5147381;27;20168;-71
2021/12/15 09:17:39;;;;;;;43.57;19.23;;;;;;;-1.43;100.00;98494.56;5148036;27;20368;-71
2021/12/15 09:20:08;;;;;;;36.53;16.37;;;;;;;-1.47;100.00;98494.59;5148305;27;20046;-72
2021/12/15 09:22:38;;;;;;;40.70;19.07;;;;;;;-1.22;100.00;98493.50;5148124;27;20115;-73
2021/12/15 09:25:06;;;;;;;38.30;16.93;;;;;;;-1.61;100.00;98484.38;5129297;27;20035;-74
2021/12/15 09:27:33;;;;;;;41.03;17.10;;;;;;;-1.20;100.00;98486.63;5147754;27;20116;-72
2021/12/15 09:30:00;;;;;;;36.03;16.80;;;;;;;-0.97;100.00;98493.25;5147882;27;20556;-72
2021/12/15 09:32:29;;;;;;;32.30;14.87;;;;;;;-0.87;100.00;98476.81;5146072;27;20160;-71
2021/12/15 09:34:56;;;;;;;40.00;16.97;;;;;;;-0.90;100.00;98483.75;5145865;27;20122;-71
2021/12/15 09:37:23;;;;;;;40.80;17.63;;;;;;;-0.87;100.00;98476.81;5156858;27;20056;-71
2021/12/15 09:39:51;;;;;;;39.10;17.70;;;;;;;-0.90;100.00;98471.66;5155620;27;20041;-71
2021/12/15 09:42:22;;;;;;;35.27;16.83;;;;;;;-0.73;100.00;98467.19;5152589;27;20705;-71
2021/12/15 09:44:54;;;;;;;39.60;16.83;;;;;;;-142.06;100.00;58987.19;5148831;27;20531;-72
2021/12/15 09:47:39;;;;;;;34.23;15.93;;;;;;;-142.06;100.00;58987.19;5140006;27;20026;-73
2021/12/15 10:04:16;;;;;;;41.10;16.07;;;;;;;-142.06;100.00;58987.19;5152651;27;20535;-73
2021/12/15 10:07:04;;;;;;;35.97;16.10;;;;;;;-142.06;100.00;58987.19;5155440;27;20043;-73
2021/12/15 10:12:31;;;;;;;38.40;15.80;;;;;;;-142.06;100.00;58987.19;5155007;27;20051;-72
2021/12/15 10:18:00;;;;;;;38.27;15.77;;;;;;;-142.06;100.00;58987.19;5160528;27;20034;-73
2021/12/15 10:20:29;;;;;;;47.37;16.90;;;;;;;-142.06;100.00;58987.19;5157671;27;20074;-74
2021/12/15 10:23:02;;;;;;;34.53;15.57;;;;;;;-142.06;100.00;58987.19;5147935;27;20042;-76
2021/12/15 10:25:30;;;;;;;;;;;;;;;-142.06;100.00;58987.19;5145012;27;20137;-75
2021/12/15 10:28:03;;;;;;;33.63;15.00;;;;;;;-142.06;100.00;58987.19;5147458;27;19919;-77
2021/12/15 10:30:33;;;;;;;30.10;13.98;;;;;;;-142.06;100.00;58987.19;5136326;27;20043;-74
2021/12/15 10:33:05;;;;;;;41.90;16.53;;;;;;;-142.06;100.00;58987.19;5139652;27;20076;-73
2021/12/15 10:35:35;;;;;;;36.97;15.17;;;;;;;-142.06;100.00;58987.19;5147544;27;20475;-73
2021/12/15 10:38:18;;;;;;;33.03;15.77;;;;;;;-142.06;100.00;58987.19;5144478;27;20074;-73
2021/12/15 10:41:10;;;;;;;31.57;16.13;;;;;;;-142.06;100.00;58987.19;5141841;27;20051;-74
2021/12/15 10:43:45;;;;;;;39.00;19.03;;;;;;;-142.06;100.00;58987.19;5121149;27;20137;-73
2021/12/15 10:46:15;;;;;;;35.37;15.30;;;;;;;-142.06;100.00;58987.19;5134829;27;20134;-73
2021/12/15 10:48:46;;;;;;;29.73;14.73;;;;;;;-142.06;100.00;58987.19;5137442;27;20095;-73
2021/12/15 10:51:25;;;;;;;37.23;15.70;;;;;;;-142.06;100.00;58987.19;5134759;27;20047;-73
2021/12/15 10:53:56;;;;;;;38.47;16.93;;;;;;;-142.06;100.00;58987.19;5139475;27;20047;-75
2021/12/15 10:56:27;;;;;;;29.30;14.33;;;;;;;-142.06;100.00;58987.19;5143940;27;20091;-75
2021/12/15 10:58:55;;;;;;;28.77;13.43;;;;;;;-142.06;100.00;58987.19;5145678;27;20035;-74
2021/12/15 11:01:42;;;;;;;32.30;15.80;;;;;;;-142.06;100.00;58987.19;5145978;27;20474;-76
2021/12/15 11:04:43;;;;;;;30.87;13.80;;;;;;;-142.06;100.00;58987.19;5144514;27;20658;-77
2021/12/15 11:07:32;;;;;;;25.80;11.57;;;;;;;-142.06;100.00;58987.19;5137642;27;20530;-73
2021/12/15 11:10:05;;;;;;;28.60;12.20;;;;;;;-142.06;100.00;58987.19;5138888;27;20129;-70
2021/12/15 11:12:35;;;;;;;33.47;13.63;;;;;;;-142.06;100.00;58987.19;5143293;27;20118;-67
2021/12/15 11:15:06;;;;;;;23.60;12.00;;;;;;;-142.06;100.00;58987.19;5137543;27;20225;-69
2021/12/15 11:17:36;;;;;;;29.73;13.33;;;;;;;-142.06;100.00;58987.19;5144142;27;20047;-72
2021/12/15 11:20:11;;;;;;;32.93;13.63;;;;;;;-142.06;100.00;58987.19;5136463;27;20839;-76
2021/12/15 11:22:57;;;;;;;28.37;12.77;;;;;;;-142.06;100.00;58987.19;5143974;27;20375;-75
2021/12/15 11:25:36;;;;;;;32.80;13.73;;;;;;;-142.06;100.00;58987.19;5138663;27;20039;-75
2021/12/15 11:28:07;;;;;;;27.37;12.60;;;;;;;-142.06;100.00;58987.19;5139595;27;20039;-74
2021/12/15 11:30:46;;;;;;;30.87;14.03;;;;;;;-142.06;100.00;58987.19;5124483;27;20510;-76
2021/12/15 11:33:16;;;;;;;29.23;13.63;;;;;;;-142.06;100.00;58987.19;5132598;27;20038;-76
2021/12/15 11:35:46;;;;;;;32.57;12.63;;;;;;;-142.06;100.00;58987.19;5148189;27;20122;-75
2021/12/15 11:38:18;;;;;;;36.83;16.13;;;;;;;-142.06;100.00;58987.19;5137482;27;20104;-76
2021/12/15 11:40:51;;;;;;;27.57;13.80;;;;;;;-142.06;100.00;58987.19;5145949;27;20494;-75
2021/12/15 11:43:30;;;;;;;30.50;14.68;;;;;;;-142.06;100.00;58987.19;5149120;27;20042;-77
2021/12/15 11:45:57;;;;;;;36.83;15.67;;;;;;;-142.06;100.00;58987.19;5149249;27;20057;-76
2021/12/15 11:48:26;;;;;;;35.97;15.23;;;;;;;-142.06;100.00;58987.19;5149939;27;20802;-76
2021/12/15 11:50:58;;;;;;;42.53;16.87;;;;;;;-142.06;100.00;58987.19;5128054;27;20470;-75
2021/12/15 11:53:42;;;;;;;40.73;16.50;;;;;;;-142.06;100.00;58987.19;5144731;27;20069;-76
2021/12/15 11:56:20;;;;;;;35.08;15.68;;;;;;;-142.06;100.00;58987.19;5150218;27;20038;-76
2021/12/15 11:58:49;;;;;;;37.67;16.20;;;;;;;-142.06;100.00;58987.19;5147616;27;20045;-76
2021/12/15 12:01:40;;;;;;;49.03;16.03;;;;;;;-142.06;100.00;58987.19;5149891;27;20046;-75
2021/12/15 12:04:22;;;;;;;38.77;16.03;;;;;;;-142.06;100.00;58987.19;5148924;27;20406;-75
2021/12/15 12:06:51;;;;;;;43.07;17.47;;;;;;;-142.06;100.00;58987.19;5143693;27;20066;-76